LVKCT SACO-SAFS
Flight info
| Callsign | LVKCT |
|---|---|
| Flight time | N/A |
| Altitude | 21000 |
| Route | GEMOP VFR |
| Aircraft | CL60/M-SBDE1E2E3FGHIJ1J4J5J7M3RWXYZ/LB1V1D1 |
Departure
| Time | 2026-04-30 01:41 |
|---|---|
| Airport | Ingeniero Aeronáutico Ambrosio L.V. Taravella International Airport (SACO) |
Arrival
| Time | N/A |
|---|---|
| Airport | Sunchales Aeroclub Airport (SAFS) |
| Time | Latitude | Longitude | Altitude | Speed | Heading |
|---|---|---|---|---|---|
| 2026-04-30 01:20 | -31.31407 | -64.21190 | 1570 ft | 0 kts | 270° |
| 2026-04-30 01:38 | -31.31396 | -64.21191 | 1570 ft | 4 kts | 77° |
| 2026-04-30 01:38 | -31.31405 | -64.21112 | 1565 ft | 14 kts | 84° |
| 2026-04-30 01:38 | -31.31439 | -64.21091 | 1565 ft | 8 kts | 159° |
| 2026-04-30 01:38 | -31.31505 | -64.21069 | 1563 ft | 12 kts | 182° |
| 2026-04-30 01:39 | -31.31608 | -64.21097 | 1561 ft | 18 kts | 186° |
| 2026-04-30 01:39 | -31.31747 | -64.21075 | 1556 ft | 20 kts | 139° |
| 2026-04-30 01:39 | -31.31858 | -64.21027 | 1553 ft | 14 kts | 179° |
| 2026-04-30 01:39 | -31.31945 | -64.21025 | 1550 ft | 11 kts | 179° |
| 2026-04-30 01:40 | -31.32043 | -64.21024 | 1548 ft | 16 kts | 179° |
| 2026-04-30 01:40 | -31.32176 | -64.21022 | 1544 ft | 22 kts | 178° |
| 2026-04-30 01:40 | -31.32326 | -64.21020 | 1541 ft | 18 kts | 184° |
| 2026-04-30 01:40 | -31.32421 | -64.20996 | 1539 ft | 12 kts | 128° |
| 2026-04-30 01:41 | -31.32435 | -64.20888 | 1539 ft | 16 kts | 60° |
| 2026-04-30 01:41 | -31.32326 | -64.20816 | 1540 ft | 28 kts | 354° |
| 2026-04-30 01:41 | -31.31719 | -64.20828 | 1554 ft | 140 kts | 358° |
| 2026-04-30 01:41 | -31.30562 | -64.20852 | 2207 ft | 180 kts | 359° |
| 2026-04-30 01:42 | -31.29293 | -64.20896 | 3291 ft | 195 kts | 0° |
| 2026-04-30 01:42 | -31.27880 | -64.21012 | 4461 ft | 213 kts | 359° |
| 2026-04-30 01:42 | -31.26437 | -64.21127 | 5950 ft | 215 kts | 1° |
| 2026-04-30 01:42 | -31.25052 | -64.20735 | 7358 ft | 214 kts | 34° |
| 2026-04-30 01:43 | -31.24134 | -64.19426 | 8643 ft | 219 kts | 70° |
| 2026-04-30 01:43 | -31.24060 | -64.17674 | 9810 ft | 230 kts | 101° |
| 2026-04-30 01:43 | -31.24516 | -64.15856 | 10917 ft | 243 kts | 107° |
| 2026-04-30 01:43 | -31.25050 | -64.13895 | 11601 ft | 273 kts | 105° |
| 2026-04-30 01:44 | -31.25328 | -64.11570 | 12122 ft | 306 kts | 94° |
| 2026-04-30 01:44 | -31.25447 | -64.09019 | 12956 ft | 325 kts | 93° |
| 2026-04-30 01:44 | -31.25547 | -64.06375 | 13936 ft | 336 kts | 92° |
| 2026-04-30 01:44 | -31.25640 | -64.03634 | 15017 ft | 342 kts | 92° |
| 2026-04-30 01:45 | -31.25722 | -64.00858 | 16032 ft | 348 kts | 92° |
| 2026-04-30 01:45 | -31.25695 | -63.98000 | 17007 ft | 354 kts | 81° |
| 2026-04-30 01:45 | -31.25019 | -63.95245 | 17900 ft | 360 kts | 70° |
| 2026-04-30 01:45 | -31.24177 | -63.92447 | 18769 ft | 368 kts | 70° |
| 2026-04-30 01:46 | -31.23332 | -63.89607 | 19666 ft | 374 kts | 71° |
| 2026-04-30 01:46 | -31.22476 | -63.86727 | 20451 ft | 382 kts | 71° |
| 2026-04-30 01:46 | -31.21590 | -63.83746 | 20894 ft | 392 kts | 71° |
| 2026-04-30 01:46 | -31.20686 | -63.80701 | 21033 ft | 390 kts | 71° |
| 2026-04-30 01:47 | -31.19799 | -63.77714 | 21049 ft | 388 kts | 71° |
| 2026-04-30 01:47 | -31.18916 | -63.74744 | 21042 ft | 389 kts | 71° |
| 2026-04-30 01:47 | -31.18007 | -63.71685 | 21041 ft | 412 kts | 71° |
| 2026-04-30 01:47 | -31.17018 | -63.68359 | 21034 ft | 441 kts | 71° |
| 2026-04-30 01:48 | -31.16007 | -63.64964 | 21035 ft | 454 kts | 71° |
| 2026-04-30 01:48 | -31.14958 | -63.61443 | 21036 ft | 456 kts | 71° |
| 2026-04-30 01:48 | -31.13925 | -63.57978 | 21038 ft | 454 kts | 71° |
| 2026-04-30 01:48 | -31.12886 | -63.54498 | 21033 ft | 452 kts | 71° |
| 2026-04-30 01:49 | -31.11849 | -63.51025 | 21039 ft | 452 kts | 71° |
| 2026-04-30 01:49 | -31.10817 | -63.47574 | 21037 ft | 453 kts | 71° |
| 2026-04-30 01:49 | -31.09775 | -63.44091 | 21040 ft | 453 kts | 71° |
| 2026-04-30 01:49 | -31.08736 | -63.40624 | 21032 ft | 453 kts | 71° |
| 2026-04-30 01:50 | -31.07694 | -63.37148 | 21036 ft | 452 kts | 71° |
| 2026-04-30 01:50 | -31.06659 | -63.33701 | 21033 ft | 453 kts | 71° |
| 2026-04-30 01:50 | -31.05611 | -63.30214 | 21034 ft | 453 kts | 71° |
| 2026-04-30 01:50 | -31.04575 | -63.26770 | 21036 ft | 453 kts | 71° |
| 2026-04-30 01:51 | -31.03532 | -63.23306 | 21036 ft | 452 kts | 71° |
| 2026-04-30 01:51 | -31.02553 | -63.19928 | 21036 ft | 451 kts | 75° |
| 2026-04-30 01:51 | -31.02092 | -63.16329 | 21034 ft | 450 kts | 88° |
| 2026-04-30 01:51 | -31.01919 | -63.12677 | 21029 ft | 449 kts | 89° |
| 2026-04-30 01:52 | -31.01736 | -63.09012 | 21031 ft | 449 kts | 88° |
| 2026-04-30 01:52 | -31.01554 | -63.05398 | 21031 ft | 449 kts | 89° |
| 2026-04-30 01:52 | -31.01371 | -63.01773 | 21030 ft | 450 kts | 88° |
| 2026-04-30 01:52 | -31.01193 | -62.98272 | 21033 ft | 450 kts | 88° |
| 2026-04-30 01:53 | -31.01007 | -62.94624 | 21033 ft | 450 kts | 89° |
| 2026-04-30 01:53 | -31.00819 | -62.90977 | 21031 ft | 450 kts | 88° |
| 2026-04-30 01:53 | -31.00631 | -62.87337 | 21032 ft | 450 kts | 88° |
| 2026-04-30 01:53 | -31.00442 | -62.83692 | 21030 ft | 450 kts | 88° |
| 2026-04-30 01:54 | -31.00274 | -62.80034 | 21034 ft | 450 kts | 89° |
| 2026-04-30 01:54 | -31.00137 | -62.76407 | 21032 ft | 451 kts | 89° |
| 2026-04-30 01:54 | -30.99995 | -62.72765 | 21029 ft | 451 kts | 89° |
| 2026-04-30 01:54 | -30.99846 | -62.69100 | 21031 ft | 451 kts | 89° |
| 2026-04-30 01:55 | -30.99693 | -62.65418 | 21032 ft | 451 kts | 89° |
| 2026-04-30 01:55 | -30.99537 | -62.61767 | 21030 ft | 451 kts | 89° |
| 2026-04-30 01:55 | -30.99379 | -62.58126 | 21030 ft | 451 kts | 89° |
| 2026-04-30 01:55 | -30.99216 | -62.54445 | 20741 ft | 457 kts | 89° |
| 2026-04-30 01:56 | -30.99052 | -62.50802 | 20022 ft | 455 kts | 89° |
| 2026-04-30 01:56 | -30.98884 | -62.47152 | 19276 ft | 450 kts | 89° |
| 2026-04-30 01:56 | -30.98716 | -62.43519 | 18517 ft | 444 kts | 88° |
| 2026-04-30 01:56 | -30.98548 | -62.39947 | 17778 ft | 439 kts | 88° |
| 2026-04-30 01:57 | -30.98380 | -62.36406 | 17065 ft | 434 kts | 88° |
| 2026-04-30 01:57 | -30.98218 | -62.33024 | 16358 ft | 429 kts | 87° |
| 2026-04-30 01:57 | -30.98050 | -62.29554 | 15622 ft | 423 kts | 87° |
| 2026-04-30 01:57 | -30.97865 | -62.26177 | 14754 ft | 423 kts | 85° |
| 2026-04-30 01:58 | -30.97626 | -62.22773 | 13810 ft | 413 kts | 86° |
| 2026-04-30 01:58 | -30.97478 | -62.19571 | 13083 ft | 395 kts | 87° |
| 2026-04-30 01:58 | -30.97331 | -62.16402 | 12347 ft | 379 kts | 87° |
| 2026-04-30 01:58 | -30.97192 | -62.13444 | 11634 ft | 364 kts | 87° |
| 2026-04-30 01:59 | -30.96919 | -62.07755 | 10177 ft | 339 kts | 86° |
| 2026-04-30 01:59 | -30.96788 | -62.05089 | 9451 ft | 327 kts | 86° |
| 2026-04-30 01:59 | -30.96661 | -62.02502 | 8797 ft | 315 kts | 86° |
| 2026-04-30 02:00 | -30.96537 | -62.00009 | 8385 ft | 297 kts | 86° |
| 2026-04-30 02:00 | -30.96419 | -61.97664 | 7983 ft | 283 kts | 86° |
| 2026-04-30 02:00 | -30.96305 | -61.95418 | 7610 ft | 270 kts | 86° |
| 2026-04-30 02:00 | -30.96196 | -61.93281 | 7267 ft | 258 kts | 86° |
| 2026-04-30 02:01 | -30.96089 | -61.91200 | 6943 ft | 254 kts | 86° |
| 2026-04-30 02:01 | -30.95984 | -61.89158 | 6583 ft | 252 kts | 87° |
| 2026-04-30 02:01 | -30.95878 | -61.87114 | 6250 ft | 248 kts | 87° |
| 2026-04-30 02:01 | -30.95773 | -61.85110 | 5918 ft | 245 kts | 86° |
| 2026-04-30 02:02 | -30.95670 | -61.83148 | 5594 ft | 242 kts | 86° |
| 2026-04-30 02:02 | -30.95567 | -61.81204 | 5275 ft | 238 kts | 86° |
| 2026-04-30 02:02 | -30.95466 | -61.79294 | 4963 ft | 234 kts | 87° |
| 2026-04-30 02:02 | -30.95365 | -61.77398 | 4652 ft | 231 kts | 87° |
| 2026-04-30 02:03 | -30.95266 | -61.75552 | 4348 ft | 229 kts | 87° |
| 2026-04-30 02:03 | -30.95166 | -61.73683 | 4042 ft | 228 kts | 87° |
| 2026-04-30 02:03 | -30.95067 | -61.71837 | 3736 ft | 227 kts | 87° |
| 2026-04-30 02:03 | -30.94967 | -61.69996 | 3436 ft | 226 kts | 87° |
| 2026-04-30 02:04 | -30.94868 | -61.68173 | 3137 ft | 226 kts | 86° |
| 2026-04-30 02:04 | -30.94750 | -61.66370 | 2972 ft | 211 kts | 84° |
| 2026-04-30 02:04 | -30.94588 | -61.64717 | 2652 ft | 201 kts | 83° |
| 2026-04-30 02:04 | -30.94427 | -61.63190 | 2567 ft | 174 kts | 82° |
| 2026-04-30 02:05 | -30.94319 | -61.62256 | 2312 ft | 165 kts | 83° |